sensor_id;sensor_type;location;lat;lon;timestamp;pressure;altitude;pressure_sealevel;temperature;humidity
74913;BME280;63878;55.624;37.304;2022-12-18T00:05:51;98357.81;;;-3.04;77.16
74913;BME280;63878;55.624;37.304;2022-12-18T00:15:52;98350.28;;;-3.10;77.78
74913;BME280;63878;55.624;37.304;2022-12-18T00:25:53;98342.88;;;-2.86;75.71
74913;BME280;63878;55.624;37.304;2022-12-18T00:35:53;98333.16;;;-3.06;75.84
74913;BME280;63878;55.624;37.304;2022-12-18T00:45:55;98321.09;;;-3.03;83.13
74913;BME280;63878;55.624;37.304;2022-12-18T00:55:56;98290.66;;;-2.82;78.67
74913;BME280;63878;55.624;37.304;2022-12-18T01:05:56;98276.31;;;-2.58;73.96
74913;BME280;63878;55.624;37.304;2022-12-18T01:15:57;98270.91;;;-2.79;75.44
74913;BME280;63878;55.624;37.304;2022-12-18T01:25:58;98285.09;;;-2.37;73.84
74913;BME280;63878;55.624;37.304;2022-12-18T01:35:58;98282.06;;;-2.81;73.85
74913;BME280;63878;55.624;37.304;2022-12-18T01:45:59;98275.88;;;-2.72;73.09
74913;BME280;63878;55.624;37.304;2022-12-18T01:56:00;98281.31;;;-3.14;74.90
74913;BME280;63878;55.624;37.304;2022-12-18T02:06:05;98291.88;;;-2.95;74.58
74913;BME280;63878;55.624;37.304;2022-12-18T02:16:13;98261.34;;;-3.36;76.18
74913;BME280;63878;55.624;37.304;2022-12-18T02:36:21;98281.09;;;-3.39;75.71
74913;BME280;63878;55.624;37.304;2022-12-18T02:56:42;98266.38;;;-3.99;77.97
74913;BME280;63878;55.624;37.304;2022-12-18T03:06:49;98275.81;;;-4.03;79.56
74913;BME280;63878;55.624;37.304;2022-12-18T03:16:53;98297.47;;;-4.18;79.43
74913;BME280;63878;55.624;37.304;2022-12-18T03:27:00;98277.38;;;-4.73;80.37
74913;BME280;63878;55.624;37.304;2022-12-18T03:37:02;98274.38;;;-4.15;81.02
74913;BME280;63878;55.624;37.304;2022-12-18T03:47:05;98294.91;;;-4.58;80.97
74913;BME280;63878;55.624;37.304;2022-12-18T03:57:16;98287.94;;;-4.50;81.27
74913;BME280;63878;55.624;37.304;2022-12-18T04:07:18;98338.06;;;-4.44;80.12
74913;BME280;63878;55.624;37.304;2022-12-18T04:17:19;98331.91;;;-4.77;80.96
74913;BME280;63878;55.624;37.304;2022-12-18T04:27:19;98368.47;;;-4.74;82.22
74913;BME280;63878;55.624;37.304;2022-12-18T04:37:20;98366.28;;;-4.95;82.28
74913;BME280;63878;55.624;37.304;2022-12-18T04:47:20;98363.38;;;-4.77;82.30
74913;BME280;63878;55.624;37.304;2022-12-18T04:57:21;98358.75;;;-5.03;82.76
74913;BME280;63878;55.624;37.304;2022-12-18T05:07:21;98385.53;;;-4.77;81.80
74913;BME280;63878;55.624;37.304;2022-12-18T05:17:22;98393.38;;;-4.86;81.53
74913;BME280;63878;55.624;37.304;2022-12-18T05:27:22;98424.31;;;-5.05;81.36
74913;BME280;63878;55.624;37.304;2022-12-18T05:37:23;98451.38;;;-4.96;82.20
74913;BME280;63878;55.624;37.304;2022-12-18T05:47:24;98452.78;;;-4.78;81.72
74913;BME280;63878;55.624;37.304;2022-12-18T05:57:24;98463.03;;;-4.80;81.88
74913;BME280;63878;55.624;37.304;2022-12-18T06:07:25;98480.84;;;-4.77;81.38
74913;BME280;63878;55.624;37.304;2022-12-18T06:17:29;98483.31;;;-4.71;81.44
74913;BME280;63878;55.624;37.304;2022-12-18T06:27:30;98527.66;;;-4.76;81.98
74913;BME280;63878;55.624;37.304;2022-12-18T06:37:31;98547.00;;;-4.60;80.44
74913;BME280;63878;55.624;37.304;2022-12-18T06:47:31;98566.00;;;-4.78;81.77
74913;BME280;63878;55.624;37.304;2022-12-18T06:57:32;98583.75;;;-4.70;81.15
74913;BME280;63878;55.624;37.304;2022-12-18T07:07:34;98600.75;;;-4.69;80.95
74913;BME280;63878;55.624;37.304;2022-12-18T07:17:34;98620.53;;;-4.82;80.26
74913;BME280;63878;55.624;37.304;2022-12-18T07:27:35;98634.03;;;-4.75;79.64
74913;BME280;63878;55.624;37.304;2022-12-18T07:37:36;98630.56;;;-4.70;78.89
74913;BME280;63878;55.624;37.304;2022-12-18T07:47:36;98641.72;;;-4.74;78.22
74913;BME280;63878;55.624;37.304;2022-12-18T07:57:37;98681.50;;;-4.59;76.78
74913;BME280;63878;55.624;37.304;2022-12-18T08:07:38;98693.47;;;-4.62;76.13
74913;BME280;63878;55.624;37.304;2022-12-18T08:17:43;98714.06;;;-4.73;76.97
74913;BME280;63878;55.624;37.304;2022-12-18T08:27:47;98717.28;;;-4.60;76.54
74913;BME280;63878;55.624;37.304;2022-12-18T08:37:54;98727.78;;;-4.20;76.46
74913;BME280;63878;55.624;37.304;2022-12-18T08:47:54;98735.94;;;-4.55;76.75
74913;BME280;63878;55.624;37.304;2022-12-18T08:57:55;98724.66;;;-4.39;77.15
74913;BME280;63878;55.624;37.304;2022-12-18T09:07:56;98755.81;;;-4.14;76.36
74913;BME280;63878;55.624;37.304;2022-12-18T09:17:56;98790.56;;;-4.02;76.04
74913;BME280;63878;55.624;37.304;2022-12-18T09:28:03;98794.88;;;-4.06;76.65
74913;BME280;63878;55.624;37.304;2022-12-18T09:38:16;98814.41;;;-4.00;76.56
74913;BME280;63878;55.624;37.304;2022-12-18T09:48:30;98798.66;;;-4.31;76.42
74913;BME280;63878;55.624;37.304;2022-12-18T09:58:43;98813.31;;;-3.84;76.22
74913;BME280;63878;55.624;37.304;2022-12-18T10:08:49;98829.66;;;-3.94;76.61
74913;BME280;63878;55.624;37.304;2022-12-18T10:28:56;98843.94;;;-4.41;77.73
74913;BME280;63878;55.624;37.304;2022-12-18T10:49:33;98912.06;;;-4.40;79.47
74913;BME280;63878;55.624;37.304;2022-12-18T10:59:51;98907.97;;;-4.56;79.85
74913;BME280;63878;55.624;37.304;2022-12-18T11:10:02;98916.97;;;-4.23;78.93
74913;BME280;63878;55.624;37.304;2022-12-18T11:20:19;98893.75;;;-4.06;79.47
74913;BME280;63878;55.624;37.304;2022-12-18T11:30:33;98926.19;;;-4.10;78.56
74913;BME280;63878;55.624;37.304;2022-12-18T11:40:42;98926.88;;;-3.97;79.21
74913;BME280;63878;55.624;37.304;2022-12-18T11:50:55;98964.63;;;-4.18;77.80
74913;BME280;63878;55.624;37.304;2022-12-18T12:01:14;98978.41;;;-3.60;77.40
74913;BME280;63878;55.624;37.304;2022-12-18T12:21:42;99019.84;;;-3.35;75.25
74913;BME280;63878;55.624;37.304;2022-12-18T12:32:19;99038.41;;;-3.86;76.02
74913;BME280;63878;55.624;37.304;2022-12-18T12:42:41;99047.38;;;-4.26;78.05
74913;BME280;63878;55.624;37.304;2022-12-18T12:52:53;99085.41;;;-3.96;78.14
74913;BME280;63878;55.624;37.304;2022-12-18T13:43:45;99171.75;;;-4.25;78.18
74913;BME280;63878;55.624;37.304;2022-12-18T13:54:35;99203.28;;;-4.25;78.74
74913;BME280;63878;55.624;37.304;2022-12-18T14:04:26;99225.47;;;-4.30;77.89
74913;BME280;63878;55.624;37.304;2022-12-18T14:14:27;99244.19;;;-4.26;77.02
74913;BME280;63878;55.624;37.304;2022-12-18T14:24:29;99263.69;;;-4.12;75.58
74913;BME280;63878;55.624;37.304;2022-12-18T14:34:30;99290.22;;;-4.26;74.11
74913;BME280;63878;55.624;37.304;2022-12-18T14:44:30;99314.84;;;-4.13;73.45
74913;BME280;63878;55.624;37.304;2022-12-18T14:54:32;99329.31;;;-4.12;72.50
74913;BME280;63878;55.624;37.304;2022-12-18T15:04:36;99331.81;;;-4.04;72.25
74913;BME280;63878;55.624;37.304;2022-12-18T15:14:41;99334.53;;;-4.27;71.94
74913;BME280;63878;55.624;37.304;2022-12-18T15:24:42;99363.38;;;-4.08;72.20
74913;BME280;63878;55.624;37.304;2022-12-18T15:34:43;99371.91;;;-4.05;70.39
74913;BME280;63878;55.624;37.304;2022-12-18T15:44:44;99387.44;;;-4.54;69.91
74913;BME280;63878;55.624;37.304;2022-12-18T15:54:45;99405.28;;;-4.43;69.73
74913;BME280;63878;55.624;37.304;2022-12-18T16:04:46;99410.44;;;-4.52;68.88
74913;BME280;63878;55.624;37.304;2022-12-18T16:14:47;99444.28;;;-3.88;66.33
74913;BME280;63878;55.624;37.304;2022-12-18T16:24:49;99458.19;;;-4.99;67.82
74913;BME280;63878;55.624;37.304;2022-12-18T16:34:50;99488.81;;;-4.89;67.91
74913;BME280;63878;55.624;37.304;2022-12-18T16:44:52;99488.78;;;-5.34;66.80
74913;BME280;63878;55.624;37.304;2022-12-18T16:54:53;99516.91;;;-4.82;66.47
74913;BME280;63878;55.624;37.304;2022-12-18T17:04:55;99531.09;;;-6.00;68.51
74913;BME280;63878;55.624;37.304;2022-12-18T17:14:57;99523.53;;;-5.71;67.26
74913;BME280;63878;55.624;37.304;2022-12-18T17:24:57;99554.34;;;-4.35;65.11
74913;BME280;63878;55.624;37.304;2022-12-18T17:34:58;99558.63;;;-4.94;63.44
74913;BME280;63878;55.624;37.304;2022-12-18T17:44:59;99584.72;;;-5.80;64.74
74913;BME280;63878;55.624;37.304;2022-12-18T17:54:59;99606.16;;;-5.41;62.65
74913;BME280;63878;55.624;37.304;2022-12-18T18:05:00;99617.84;;;-5.82;62.76
74913;BME280;63878;55.624;37.304;2022-12-18T18:15:01;99644.25;;;-5.69;61.45
74913;BME280;63878;55.624;37.304;2022-12-18T18:25:01;99659.88;;;-6.48;63.23
74913;BME280;63878;55.624;37.304;2022-12-18T18:35:02;99674.34;;;-6.42;63.62
74913;BME280;63878;55.624;37.304;2022-12-18T18:45:03;99691.69;;;-6.90;63.44
74913;BME280;63878;55.624;37.304;2022-12-18T18:55:04;99700.78;;;-7.11;64.24
74913;BME280;63878;55.624;37.304;2022-12-18T19:05:05;99737.06;;;-7.26;65.45
74913;BME280;63878;55.624;37.304;2022-12-18T19:15:06;99743.06;;;-7.21;64.44
74913;BME280;63878;55.624;37.304;2022-12-18T19:25:07;99750.25;;;-6.90;64.06
74913;BME280;63878;55.624;37.304;2022-12-18T19:35:08;99766.84;;;-7.18;64.24
74913;BME280;63878;55.624;37.304;2022-12-18T19:45:10;99806.91;;;-7.04;63.62
74913;BME280;63878;55.624;37.304;2022-12-18T19:55:10;99804.19;;;-7.73;65.07
74913;BME280;63878;55.624;37.304;2022-12-18T20:05:12;99823.25;;;-7.48;63.61
74913;BME280;63878;55.624;37.304;2022-12-18T20:15:13;99824.13;;;-7.44;63.35
74913;BME280;63878;55.624;37.304;2022-12-18T20:25:14;99841.41;;;-7.23;63.82
74913;BME280;63878;55.624;37.304;2022-12-18T20:35:14;99851.66;;;-7.17;63.32
74913;BME280;63878;55.624;37.304;2022-12-18T20:45:15;99856.00;;;-7.66;63.29
74913;BME280;63878;55.624;37.304;2022-12-18T20:55:16;99858.88;;;-7.45;63.29
74913;BME280;63878;55.624;37.304;2022-12-18T21:05:16;99869.28;;;-7.82;62.37
74913;BME280;63878;55.624;37.304;2022-12-18T21:15:17;99883.81;;;-7.75;62.98
74913;BME280;63878;55.624;37.304;2022-12-18T21:25:18;99871.34;;;-7.61;62.38
74913;BME280;63878;55.624;37.304;2022-12-18T21:35:18;99890.25;;;-7.92;64.29
74913;BME280;63878;55.624;37.304;2022-12-18T21:45:19;99900.22;;;-7.56;62.66
74913;BME280;63878;55.624;37.304;2022-12-18T21:55:20;99914.28;;;-7.28;62.34
74913;BME280;63878;55.624;37.304;2022-12-18T22:05:20;99925.34;;;-7.73;63.12
74913;BME280;63878;55.624;37.304;2022-12-18T22:15:21;99915.66;;;-7.47;62.49
74913;BME280;63878;55.624;37.304;2022-12-18T22:25:22;99907.19;;;-7.46;62.38
74913;BME280;63878;55.624;37.304;2022-12-18T22:35:22;99931.06;;;-7.36;62.35
74913;BME280;63878;55.624;37.304;2022-12-18T22:45:24;99940.34;;;-7.40;62.96
74913;BME280;63878;55.624;37.304;2022-12-18T22:55:24;99935.91;;;-7.52;62.99
74913;BME280;63878;55.624;37.304;2022-12-18T23:05:25;99957.34;;;-7.37;62.94
74913;BME280;63878;55.624;37.304;2022-12-18T23:15:26;99970.63;;;-7.55;63.79
74913;BME280;63878;55.624;37.304;2022-12-18T23:25:26;99959.66;;;-7.50;63.08
74913;BME280;63878;55.624;37.304;2022-12-18T23:35:27;99979.63;;;-7.23;63.07
74913;BME280;63878;55.624;37.304;2022-12-18T23:45:27;99996.44;;;-7.32;62.78
74913;BME280;63878;55.624;37.304;2022-12-18T23:55:27;100011.56;;;-7.40;62.69
